Time;durP1;ratioP1;P1;durP2;ratioP2;P2;SDS_P1;SDS_P2;PMS_P1;PMS_P2;Temp;Humidity;BMP_temperature;BMP_pressure;BME280_temperature;BME280_humidity;BME280_pressure;Samples;Min_cycle;Max_cycle;Signal;HPM_P1;HPM_P2
2024/01/24 00:02:23;;;;;;;2.58;1.20;;;13.50;99.90;;;;;;4985202;28;20052;-81
2024/01/24 00:04:50;;;;;;;4.10;1.42;;;13.60;99.90;;;;;;4969286;28;20053;-80
2024/01/24 00:07:17;;;;;;;2.30;1.10;;;13.60;99.90;;;;;;5003875;28;20049;-79
2024/01/24 00:09:44;;;;;;;3.22;1.27;;;13.70;99.90;;;;;;5003648;28;20042;-80
2024/01/24 00:12:12;;;;;;;2.78;1.02;;;13.70;99.90;;;;;;4988651;28;20073;-80
2024/01/24 00:14:39;;;;;;;1.00;0.80;;;13.70;99.90;;;;;;4969333;28;20077;-80
2024/01/24 00:17:06;;;;;;;1.85;0.80;;;13.70;99.90;;;;;;5004908;28;20073;-80
2024/01/24 00:19:33;;;;;;;1.60;1.10;;;13.70;99.90;;;;;;5004655;28;20190;-79
2024/01/24 00:22:01;;;;;;;2.58;1.20;;;13.70;99.90;;;;;;5003196;28;20053;-80
2024/01/24 00:24:27;;;;;;;4.03;1.38;;;13.70;99.90;;;;;;4984763;28;20053;-80
2024/01/24 00:26:55;;;;;;;4.97;1.27;;;13.70;99.90;;;;;;4969292;28;20046;-80
2024/01/24 00:29:22;;;;;;;4.10;1.25;;;13.70;99.90;;;;;;4986246;28;20049;-80
2024/01/24 00:31:49;;;;;;;3.83;1.25;;;13.70;99.90;;;;;;4999639;28;20057;-80
2024/01/24 00:34:16;;;;;;;8.18;2.45;;;13.70;99.90;;;;;;4971176;28;20081;-81
2024/01/24 00:36:43;;;;;;;6.50;2.28;;;13.70;99.90;;;;;;4988064;28;20054;-80
2024/01/24 00:39:10;;;;;;;5.40;2.45;;;13.70;99.90;;;;;;4986617;28;20054;-80
2024/01/24 00:41:39;;;;;;;3.70;1.80;;;13.70;99.90;;;;;;4955880;28;20129;-80
2024/01/24 00:44:06;;;;;;;7.82;2.67;;;13.60;99.90;;;;;;4955271;28;20103;-80
2024/01/24 00:46:33;;;;;;;6.20;2.45;;;13.60;1.00;;;;;;4972124;28;20433;-79
2024/01/24 00:49:03;;;;;;;8.73;2.85;;;13.70;1.00;;;;;;4988086;28;20054;-80
2024/01/24 00:51:30;;;;;;;9.93;2.90;;;13.70;99.90;;;;;;4972358;28;20054;-80
2024/01/24 00:53:57;;;;;;;9.27;2.15;;;13.70;99.90;;;;;;4970757;28;20054;-80
2024/01/24 00:56:24;;;;;;;6.50;2.33;;;13.70;99.90;;;;;;4971933;28;20058;-80
2024/01/24 00:58:51;;;;;;;8.85;2.38;;;13.70;99.90;;;;;;4970567;28;20427;-81
2024/01/24 01:01:19;;;;;;;8.50;2.65;;;13.60;99.90;;;;;;4944739;28;20968;-80
2024/01/24 01:03:46;;;;;;;4.97;2.13;;;13.60;99.90;;;;;;4962500;28;20054;-80
2024/01/24 01:06:13;;;;;;;6.97;2.53;;;13.60;99.90;;;;;;4967161;28;20085;-80
2024/01/24 01:08:40;;;;;;;7.50;2.92;;;13.60;99.90;;;;;;4985620;28;20054;-80
2024/01/24 01:11:07;;;;;;;7.57;2.15;;;13.60;99.90;;;;;;4955774;28;20053;-80
2024/01/24 01:13:34;;;;;;;6.72;2.25;;;13.50;99.90;;;;;;4986465;28;20058;-80
2024/01/24 01:16:01;;;;;;;7.25;2.40;;;13.50;99.90;;;;;;4987648;28;20057;-81
2024/01/24 01:18:28;;;;;;;4.63;2.00;;;13.50;99.90;;;;;;4986954;28;20050;-80
2024/01/24 01:20:56;;;;;;;11.35;3.15;;;13.50;99.90;;;;;;4987607;28;20053;-80
2024/01/24 01:23:23;;;;;;;10.48;3.22;;;13.50;99.90;;;;;;4985992;28;20064;-80
2024/01/24 01:25:50;;;;;;;10.05;2.83;;;13.40;99.90;;;;;;4987479;28;20058;-80
2024/01/24 01:28:17;;;;;;;10.35;3.20;;;13.40;1.00;;;;;;4970703;28;20611;-80
2024/01/24 01:30:45;;;;;;;15.30;4.53;;;13.40;1.00;;;;;;4987729;28;20073;-80
2024/01/24 01:33:12;;;;;;;12.90;3.50;;;13.30;1.00;;;;;;4986383;28;20054;-80
2024/01/24 01:35:39;;;;;;;7.63;3.17;;;13.40;1.00;;;;;;4971032;28;20054;-80
2024/01/24 01:38:06;;;;;;;9.40;3.63;;;13.40;1.00;;;;;;4969799;28;20077;-80
2024/01/24 01:40:33;;;;;;;10.95;3.53;;;13.30;1.00;;;;;;4987201;28;20046;-80
2024/01/24 01:43:00;;;;;;;14.20;5.03;;;13.30;43.60;;;;;;4970261;28;20050;-80
2024/01/24 01:45:27;;;;;;;12.13;4.18;;;13.30;93.40;;;;;;5004114;28;20127;-80
2024/01/24 01:47:54;;;;;;;11.75;3.90;;;13.30;4.10;;;;;;4970692;28;20530;-80
2024/01/24 01:50:21;;;;;;;11.98;3.88;;;13.20;1.00;;;;;;4970649;28;20141;-80
2024/01/24 01:52:48;;;;;;;13.45;4.63;;;13.20;99.90;;;;;;4968968;28;20089;-80
2024/01/24 01:55:15;;;;;;;12.50;4.93;;;13.20;99.90;;;;;;4986244;28;20060;-81
2024/01/24 01:57:43;;;;;;;9.50;3.40;;;13.20;11.30;;;;;;4986940;28;20054;-80
2024/01/24 02:00:11;;;;;;;13.00;4.38;;;13.20;92.70;;;;;;4986459;28;20068;-80
2024/01/24 02:02:38;;;;;;;10.35;3.80;;;13.10;61.00;;;;;;4970407;28;20152;-79
2024/01/24 02:05:05;;;;;;;13.30;4.68;;;13.10;34.80;;;;;;4986362;28;20085;-80
2024/01/24 02:07:32;;;;;;;11.02;4.05;;;13.10;97.20;;;;;;4970892;28;20119;-80
2024/01/24 02:09:59;;;;;;;9.02;4.28;;;13.10;1.00;;;;;;4969565;28;20050;-80
2024/01/24 02:12:26;;;;;;;8.10;3.45;;;13.10;1.00;;;;;;4970868;28;20058;-80
2024/01/24 02:14:53;;;;;;;10.80;3.33;;;13.10;99.90;;;;;;4969749;28;20081;-80
2024/01/24 02:17:20;;;;;;;9.00;3.53;;;13.10;1.00;;;;;;4970217;28;20057;-80
2024/01/24 02:19:47;;;;;;;8.77;3.50;;;13.10;1.00;;;;;;4986273;28;21037;-79
2024/01/24 02:22:14;;;;;;;13.55;3.90;;;13.00;99.90;;;;;;4970671;28;20046;-80
2024/01/24 02:24:41;;;;;;;11.50;3.60;;;13.00;99.90;;;;;;4985367;28;20140;-80
2024/01/24 02:27:08;;;;;;;12.60;3.55;;;13.00;1.00;;;;;;4970836;28;20046;-79
2024/01/24 02:29:35;;;;;;;12.02;4.10;;;13.00;1.00;;;;;;4969876;28;20068;-80
2024/01/24 02:32:03;;;;;;;9.60;3.47;;;13.00;1.00;;;;;;4963865;28;20053;-80
2024/01/24 02:34:31;;;;;;;15.45;4.38;;;13.00;1.00;;;;;;5001652;28;20186;-80
2024/01/24 02:36:58;;;;;;;15.52;5.15;;;12.90;1.00;;;;;;4986262;28;20061;-80
2024/01/24 02:39:25;;;;;;;11.65;4.40;;;12.90;1.00;;;;;;4987362;28;20068;-80
2024/01/24 02:41:53;;;;;;;13.60;4.05;;;12.80;1.00;;;;;;5007495;28;20050;-79
2024/01/24 02:44:19;;;;;;;10.55;4.47;;;12.80;1.00;;;;;;5005116;28;20050;-79
2024/01/24 02:46:46;;;;;;;9.27;3.47;;;12.70;1.00;;;;;;4984523;28;20109;-80
2024/01/24 02:49:13;;;;;;;11.77;4.45;;;12.70;1.00;;;;;;5000862;28;20055;-80
2024/01/24 02:51:40;;;;;;;9.65;4.32;;;12.70;99.90;;;;;;4986240;28;20057;-81
2024/01/24 02:54:07;;;;;;;10.25;3.92;;;12.70;93.60;;;;;;4979953;28;20057;-80
2024/01/24 02:56:35;;;;;;;11.68;4.40;;;12.70;99.90;;;;;;4988735;28;20042;-81
2024/01/24 02:59:02;;;;;;;11.45;4.45;;;12.60;99.90;;;;;;4987089;28;20636;-81
2024/01/24 03:01:29;;;;;;;11.23;3.88;;;12.60;99.90;;;;;;4988598;28;20057;-80
2024/01/24 03:03:56;;;;;;;15.88;5.32;;;12.60;99.90;;;;;;4989989;28;20058;-80
2024/01/24 03:06:23;;;;;;;18.35;5.50;;;12.50;99.90;;;;;;4991984;28;20432;-81
2024/01/24 03:08:57;;;;;;;13.40;4.43;;;12.50;99.90;;;;;;5008062;28;20058;-80
2024/01/24 03:11:24;;;;;;;13.55;5.45;;;12.40;99.90;;;;;;5008668;28;20081;-80
2024/01/24 03:13:51;;;;;;;15.27;5.20;;;12.40;1.00;;;;;;5006798;28;20046;-80
2024/01/24 03:16:17;;;;;;;11.50;4.15;;;12.30;1.00;;;;;;4991693;28;20687;-80
2024/01/24 03:18:44;;;;;;;13.55;4.28;;;12.30;1.00;;;;;;5008943;28;20054;-81
2024/01/24 03:21:15;;;;;;;15.82;4.88;;;12.20;1.00;;;;;;4991755;28;20049;-80
2024/01/24 03:23:42;;;;;;;21.35;5.68;;;12.20;1.00;;;;;;4990598;28;20064;-80
2024/01/24 03:26:09;;;;;;;15.88;5.03;;;12.20;1.00;;;;;;5009413;28;20081;-80
2024/01/24 03:28:36;;;;;;;17.92;5.18;;;12.20;1.00;;;;;;4990701;28;20089;-80
2024/01/24 03:31:04;;;;;;;16.67;4.97;;;12.20;1.00;;;;;;5007186;28;20050;-80
2024/01/24 03:33:31;;;;;;;16.73;5.18;;;12.10;1.00;;;;;;4991004;28;20104;-80
2024/01/24 03:35:58;;;;;;;19.60;6.82;;;12.10;1.00;;;;;;4991781;28;20042;-79
2024/01/24 03:38:24;;;;;;;16.20;5.07;;;12.10;99.90;;;;;;4974539;28;20058;-80
2024/01/24 03:40:51;;;;;;;13.68;4.47;;;12.10;1.00;;;;;;4937961;28;20098;-81
2024/01/24 03:43:18;;;;;;;11.73;4.43;;;12.10;1.00;;;;;;4974058;28;20046;-81
2024/01/24 03:45:45;;;;;;;12.85;4.93;;;12.10;1.00;;;;;;4989541;28;20770;-81
2024/01/24 03:48:12;;;;;;;15.52;5.47;;;12.00;1.00;;;;;;4972649;28;20060;-83
2024/01/24 03:50:39;;;;;;;11.25;4.80;;;12.00;1.00;;;;;;4973829;28;20050;-81
2024/01/24 03:53:06;;;;;;;13.35;4.70;;;12.00;1.00;;;;;;4988628;28;20137;-80
2024/01/24 03:55:33;;;;;;;15.80;5.88;;;11.90;1.00;;;;;;4973798;28;20046;-81
2024/01/24 03:58:00;;;;;;;13.65;4.07;;;11.90;1.00;;;;;;4973129;28;20053;-80
2024/01/24 04:00:27;;;;;;;14.15;5.07;;;11.90;1.00;;;;;;4991095;28;20475;-79
2024/01/24 04:02:55;;;;;;;15.38;5.32;;;11.90;99.90;;;;;;4990869;28;20041;-81
2024/01/24 04:05:22;;;;;;;9.02;4.05;;;11.90;1.00;;;;;;4990758;28;20112;-81
2024/01/24 04:07:49;;;;;;;15.63;5.95;;;11.90;1.00;;;;;;4973767;28;20089;-81
2024/01/24 04:10:16;;;;;;;12.95;4.28;;;11.90;1.00;;;;;;4990508;28;20069;-82
2024/01/24 04:12:43;;;;;;;17.42;5.30;;;11.80;1.00;;;;;;5008467;28;20476;-81
2024/01/24 04:15:10;;;;;;;10.18;3.83;;;11.80;1.00;;;;;;4988871;28;20053;-80
2024/01/24 04:17:37;;;;;;;13.23;4.25;;;11.80;1.00;;;;;;4990477;28;20136;-80
2024/01/24 04:20:05;;;;;;;10.48;4.57;;;11.80;1.00;;;;;;5007262;28;20085;-81
2024/01/24 04:22:32;;;;;;;14.38;4.65;;;11.80;99.90;;;;;;4990228;28;20053;-81
2024/01/24 04:25:00;;;;;;;17.35;3.97;;;11.70;1.00;;;;;;4972807;28;20065;-81
2024/01/24 04:27:27;;;;;;;16.35;5.28;;;11.70;32.30;;;;;;4990495;28;20068;-81
2024/01/24 04:29:54;;;;;;;17.88;6.00;;;11.70;1.00;;;;;;4989281;28;20480;-80
2024/01/24 04:32:21;;;;;;;18.08;6.93;;;11.70;1.00;;;;;;5007276;28;20144;-80
2024/01/24 04:34:48;;;;;;;9.95;4.53;;;11.70;1.00;;;;;;4973568;28;20046;-80
2024/01/24 04:37:15;;;;;;;21.50;5.28;;;11.70;99.90;;;;;;4957578;28;20140;-81
2024/01/24 04:39:42;;;;;;;17.77;5.45;;;11.70;99.90;;;;;;4972363;28;20080;-81
2024/01/24 04:42:09;;;;;;;11.32;4.68;;;11.70;1.00;;;;;;4973636;28;20137;-81
2024/01/24 04:44:43;;;;;;;;;;;11.70;99.90;;;;;;4990235;28;20494;-81
2024/01/24 04:47:13;;;;;;;11.35;4.18;;;11.70;1.00;;;;;;5007622;28;19928;-81
2024/01/24 04:49:40;;;;;;;12.05;4.57;;;11.70;1.00;;;;;;4990097;28;20057;-81
2024/01/24 04:52:13;;;;;;;9.75;3.78;;;11.70;1.00;;;;;;5006479;28;20050;-81
2024/01/24 04:54:43;;;;;;;16.33;5.07;;;11.70;1.00;;;;;;4989049;28;20050;-81
2024/01/24 04:57:10;;;;;;;12.90;4.80;;;11.70;1.00;;;;;;4958664;28;20137;-81
2024/01/24 04:59:39;;;;;;;15.05;4.80;;;11.60;1.00;;;;;;4988652;28;20607;-80
2024/01/24 05:02:19;;;;;;;20.63;6.00;;;11.60;99.90;;;;;;4976688;28;20450;-81
2024/01/24 05:04:47;;;;;;;13.27;4.32;;;11.60;99.90;;;;;;4989168;28;20065;-81
2024/01/24 05:07:15;;;;;;;9.27;3.75;;;11.60;99.90;;;;;;4989524;28;20464;-81
2024/01/24 05:09:42;;;;;;;13.10;4.55;;;11.60;99.90;;;;;;4987815;28;20635;-81
2024/01/24 05:12:09;;;;;;;15.73;4.88;;;11.60;99.90;;;;;;4973500;28;20054;-81
2024/01/24 05:14:36;;;;;;;13.23;5.47;;;11.60;1.00;;;;;;4972737;28;20104;-80
2024/01/24 05:17:04;;;;;;;14.50;5.50;;;11.60;99.90;;;;;;4973193;28;20542;-81
2024/01/24 05:19:32;;;;;;;18.13;5.25;;;11.60;99.90;;;;;;4972780;28;20579;-81
2024/01/24 05:21:59;;;;;;;15.07;4.75;;;11.50;99.90;;;;;;4973225;28;20046;-80
2024/01/24 05:24:26;;;;;;;12.43;4.60;;;11.60;99.90;;;;;;4962600;28;20054;-80
2024/01/24 05:26:53;;;;;;;13.27;5.05;;;11.50;99.90;;;;;;4970025;28;20109;-80
2024/01/24 05:29:20;;;;;;;18.63;6.13;;;11.50;99.90;;;;;;4969139;28;20054;-80
2024/01/24 05:31:47;;;;;;;15.43;4.88;;;11.50;95.40;;;;;;4965147;28;20050;-80
2024/01/24 05:34:14;;;;;;;15.30;4.57;;;11.50;99.90;;;;;;5021053;28;20056;-81
2024/01/24 05:36:41;;;;;;;12.02;4.15;;;11.50;99.90;;;;;;5005026;28;20050;-81
2024/01/24 05:39:08;;;;;;;12.98;4.70;;;11.50;97.00;;;;;;5004286;28;20061;-80
2024/01/24 05:41:35;;;;;;;16.25;4.47;;;11.50;36.20;;;;;;5006573;28;20050;-79
2024/01/24 05:44:03;;;;;;;16.35;6.00;;;11.50;64.40;;;;;;5017891;28;20639;-81
2024/01/24 05:46:30;;;;;;;12.07;4.00;;;11.50;54.30;;;;;;4988903;28;20053;-80
2024/01/24 05:48:58;;;;;;;11.18;4.20;;;11.50;56.40;;;;;;4970873;28;20518;-81
2024/01/24 05:51:25;;;;;;;11.68;4.35;;;11.40;23.60;;;;;;5003466;28;20080;-81
2024/01/24 05:53:52;;;;;;;18.40;5.65;;;11.40;1.00;;;;;;4985370;28;20054;-81
2024/01/24 05:56:19;;;;;;;10.38;4.07;;;11.40;61.70;;;;;;4986729;28;20065;-81
2024/01/24 05:58:46;;;;;;;15.00;4.05;;;11.30;1.00;;;;;;5002092;28;20053;-80
2024/01/24 06:01:13;;;;;;;12.23;4.22;;;11.30;1.00;;;;;;5002872;28;20115;-80
2024/01/24 06:03:41;;;;;;;10.82;3.75;;;11.30;99.90;;;;;;4981554;28;20046;-81
2024/01/24 06:06:08;;;;;;;11.57;3.92;;;11.20;38.10;;;;;;4967577;28;20050;-80
2024/01/24 06:08:37;;;;;;;10.10;3.88;;;11.20;11.70;;;;;;5000617;28;20206;-80
2024/01/24 06:11:04;;;;;;;12.65;3.97;;;11.30;67.30;;;;;;5003069;28;20085;-81
2024/01/24 06:13:31;;;;;;;9.05;4.18;;;11.20;99.90;;;;;;5000909;28;20050;-81
2024/01/24 06:15:59;;;;;;;10.90;3.80;;;11.20;99.90;;;;;;4986323;28;20069;-81
2024/01/24 06:18:27;;;;;;;16.30;4.35;;;11.20;42.30;;;;;;5003469;28;20141;-80
2024/01/24 06:20:54;;;;;;;9.15;3.85;;;11.20;1.30;;;;;;5002723;28;20062;-81
2024/01/24 06:23:21;;;;;;;19.05;5.38;;;11.10;91.20;;;;;;5001385;28;20046;-80
2024/01/24 06:25:48;;;;;;;13.50;4.32;;;11.10;39.00;;;;;;4999176;28;20127;-80
2024/01/24 06:28:15;;;;;;;10.68;4.07;;;11.10;1.00;;;;;;5000244;28;20354;-80
2024/01/24 06:30:42;;;;;;;8.90;3.65;;;11.10;1.00;;;;;;4999204;28;20409;-80
2024/01/24 06:33:10;;;;;;;10.98;3.72;;;11.10;1.00;;;;;;4966012;28;20137;-80
2024/01/24 06:35:37;;;;;;;9.23;3.88;;;11.00;7.10;;;;;;4999467;28;20479;-79
2024/01/24 06:38:06;;;;;;;13.07;4.00;;;11.00;1.00;;;;;;4983538;28;20447;-80
2024/01/24 06:40:32;;;;;;;9.00;3.33;;;11.00;1.00;;;;;;5005238;28;20058;-80
2024/01/24 06:42:59;;;;;;;11.23;3.58;;;11.00;24.90;;;;;;5006061;28;20626;-80
2024/01/24 06:45:26;;;;;;;14.82;4.38;;;11.00;57.60;;;;;;5006315;28;20049;-80
2024/01/24 06:47:53;;;;;;;11.57;4.03;;;11.00;99.90;;;;;;5006200;28;20085;-80
2024/01/24 06:50:20;;;;;;;10.98;4.25;;;11.00;1.00;;;;;;4967746;28;20047;-80
2024/01/24 06:52:47;;;;;;;9.93;3.78;;;11.00;1.00;;;;;;4984033;28;20411;-79
2024/01/24 06:55:18;;;;;;;10.85;4.13;;;11.00;99.90;;;;;;5005626;28;20081;-80
2024/01/24 06:57:45;;;;;;;10.70;4.13;;;11.00;99.90;;;;;;4974081;28;20049;-80
2024/01/24 07:00:12;;;;;;;9.77;3.83;;;11.00;99.90;;;;;;5004564;28;20050;-80
2024/01/24 07:02:39;;;;;;;16.05;4.22;;;11.00;99.90;;;;;;4982484;28;20065;-80
2024/01/24 07:05:07;;;;;;;14.02;4.38;;;11.00;1.00;;;;;;5014618;28;20046;-80
2024/01/24 07:07:34;;;;;;;13.30;4.00;;;11.00;38.80;;;;;;5018750;28;20038;-80
2024/01/24 07:10:01;;;;;;;12.18;4.20;;;10.90;1.00;;;;;;5004187;28;20053;-80
2024/01/24 07:12:28;;;;;;;13.07;5.03;;;10.90;1.00;;;;;;5018614;28;21370;-81
2024/01/24 07:14:55;;;;;;;13.15;4.28;;;10.90;1.00;;;;;;5017439;28;20050;-80
2024/01/24 07:17:23;;;;;;;10.38;4.22;;;10.90;1.00;;;;;;5020691;28;20066;-81
2024/01/24 07:19:51;;;;;;;11.00;3.45;;;10.90;1.00;;;;;;4971267;28;20181;-81
2024/01/24 07:22:18;;;;;;;7.30;2.70;;;10.90;1.00;;;;;;5001257;28;20052;-80
2024/01/24 07:24:45;;;;;;;10.38;3.83;;;10.80;1.00;;;;;;4988182;28;20123;-81
2024/01/24 07:27:12;;;;;;;8.15;3.08;;;10.80;1.00;;;;;;5004559;28;20042;-80
2024/01/24 07:29:38;;;;;;;10.85;4.03;;;10.80;1.00;;;;;;5001579;28;20492;-80
2024/01/24 07:32:06;;;;;;;8.00;3.35;;;10.80;1.00;;;;;;4988132;28;20070;-80
2024/01/24 07:34:33;;;;;;;7.65;3.67;;;10.80;1.00;;;;;;5005955;28;20053;-80
2024/01/24 07:37:00;;;;;;;11.95;4.18;;;10.70;1.00;;;;;;4989615;28;20112;-80
2024/01/24 07:39:28;;;;;;;10.93;3.67;;;10.70;1.00;;;;;;4988011;28;20064;-80
2024/01/24 07:41:55;;;;;;;13.18;4.03;;;10.70;1.00;;;;;;4989339;28;20046;-80
2024/01/24 07:44:23;;;;;;;9.18;3.20;;;10.70;1.00;;;;;;5005129;28;20135;-81
2024/01/24 07:46:50;;;;;;;15.27;4.38;;;10.70;1.00;;;;;;4988927;28;20054;-79
2024/01/24 07:49:17;;;;;;;13.73;3.85;;;10.60;1.00;;;;;;4971540;28;20980;-79
2024/01/24 07:51:46;;;;;;;9.50;3.28;;;10.60;1.00;;;;;;5004541;28;20132;-80
2024/01/24 07:54:17;;;;;;;9.13;3.38;;;10.60;32.70;;;;;;4988104;28;20053;-80
2024/01/24 07:56:46;;;;;;;12.43;4.18;;;10.60;1.00;;;;;;5009866;28;20054;-80
2024/01/24 07:59:16;;;;;;;11.02;4.65;;;10.60;1.00;;;;;;4996427;28;20053;-80
2024/01/24 08:01:47;;;;;;;7.43;3.17;;;10.60;1.00;;;;;;4986736;28;20519;-80
2024/01/24 08:04:15;;;;;;;9.27;3.00;;;10.60;1.00;;;;;;4984598;28;20050;-80
2024/01/24 08:06:45;;;;;;;11.82;4.10;;;10.50;1.00;;;;;;4996307;28;20099;-80
2024/01/24 08:09:13;;;;;;;6.03;2.60;;;10.50;1.00;;;;;;4987884;28;20089;-80
2024/01/24 08:11:41;;;;;;;7.72;2.85;;;10.50;1.00;;;;;;4999661;28;20046;-79
2024/01/24 08:14:08;;;;;;;10.02;4.07;;;10.50;1.00;;;;;;4987091;28;21590;-80
2024/01/24 08:16:35;;;;;;;14.00;3.97;;;10.40;11.80;;;;;;5005533;28;20176;-79
2024/01/24 08:19:03;;;;;;;12.65;4.28;;;10.40;1.00;;;;;;4991131;28;20068;-80
2024/01/24 08:21:30;;;;;;;14.90;5.03;;;10.50;1.00;;;;;;4987762;28;20042;-80
2024/01/24 08:23:57;;;;;;;16.02;4.78;;;10.50;1.00;;;;;;4969252;28;20121;-79
2024/01/24 08:26:24;;;;;;;12.48;3.45;;;10.50;1.00;;;;;;5001506;28;20049;-79
2024/01/24 08:28:52;;;;;;;12.20;3.78;;;10.40;1.00;;;;;;4970726;28;20046;-79
2024/01/24 08:31:19;;;;;;;14.15;4.13;;;10.50;1.00;;;;;;5002466;28;20994;-80
2024/01/24 08:33:46;;;;;;;8.27;3.17;;;10.50;1.00;;;;;;4986375;28;20140;-80
2024/01/24 08:36:18;;;;;;;7.63;2.80;;;10.50;1.00;;;;;;4987057;28;20130;-79
2024/01/24 08:38:46;;;;;;;10.30;3.13;;;10.50;1.00;;;;;;4986979;28;20584;-79
2024/01/24 08:41:13;;;;;;;13.73;4.53;;;10.50;1.00;;;;;;4988550;28;20060;-79
2024/01/24 08:43:40;;;;;;;12.13;3.47;;;10.50;1.00;;;;;;5004105;28;20046;-80
2024/01/24 08:46:07;;;;;;;13.32;4.45;;;10.50;1.00;;;;;;5003118;28;20050;-79
2024/01/24 08:48:34;;;;;;;8.32;3.60;;;10.50;99.90;;;;;;4986303;28;20057;-80
2024/01/24 08:51:01;;;;;;;11.43;3.80;;;10.50;99.90;;;;;;4987338;28;20049;-80
2024/01/24 08:53:28;;;;;;;9.05;2.70;;;10.50;99.90;;;;;;5004379;28;20212;-79
2024/01/24 08:55:55;;;;;;;10.13;3.92;;;10.60;99.90;;;;;;5001428;28;20129;-80
2024/01/24 08:58:23;;;;;;;9.65;3.00;;;10.50;99.90;;;;;;4999919;28;20411;-79
2024/01/24 09:00:51;;;;;;;8.73;3.13;;;10.50;99.90;;;;;;5002882;28;20141;-80
2024/01/24 09:03:19;;;;;;;9.75;3.22;;;10.60;1.00;;;;;;4970644;28;20431;-80
2024/01/24 09:05:46;;;;;;;10.57;3.58;;;10.60;99.90;;;;;;4970353;28;20063;-81
2024/01/24 09:08:15;;;;;;;10.80;3.65;;;10.50;1.00;;;;;;4994049;28;20078;-81
2024/01/24 09:10:43;;;;;;;8.63;2.90;;;10.60;99.90;;;;;;5003381;28;20054;-80
2024/01/24 09:13:10;;;;;;;10.52;3.63;;;10.60;48.20;;;;;;5002515;28;20112;-82
2024/01/24 09:15:39;;;;;;;10.68;3.88;;;10.60;80.80;;;;;;5004489;28;20139;-83
2024/01/24 09:18:08;;;;;;;5.68;3.08;;;10.60;99.90;;;;;;5005312;28;20100;-89
2024/01/24 09:20:38;;;;;;;8.82;3.30;;;10.70;99.90;;;;;;4992358;28;20144;-90
2024/01/24 09:23:06;;;;;;;6.95;2.53;;;10.70;99.90;;;;;;4971852;28;20050;-92
2024/01/24 09:25:33;;;;;;;8.38;3.10;;;10.70;99.90;;;;;;4971613;28;20058;-91
2024/01/24 09:28:00;;;;;;;13.98;4.20;;;10.70;99.90;;;;;;4971239;28;20085;-82
2024/01/24 09:30:27;;;;;;;11.27;3.88;;;10.70;99.90;;;;;;5006926;28;20084;-89
2024/01/24 09:32:55;;;;;;;11.77;4.07;;;10.70;98.20;;;;;;4991268;28;20065;-91
2024/01/24 09:35:28;;;;;;;13.35;3.92;;;10.70;99.90;;;;;;4976761;28;20100;-91
2024/01/24 09:37:59;;;;;;;10.65;3.63;;;10.80;99.90;;;;;;4975531;28;20569;-91
2024/01/24 09:40:31;;;;;;;13.18;4.28;;;10.70;99.90;;;;;;4976139;28;20136;-92
2024/01/24 09:43:04;;;;;;;11.60;4.28;;;10.70;99.90;;;;;;4975901;28;20050;-89
2024/01/24 09:45:33;;;;;;;14.00;5.32;;;10.70;99.90;;;;;;4977163;28;20050;-92
2024/01/24 09:48:02;;;;;;;13.10;4.75;;;10.70;99.90;;;;;;4976378;28;20046;-92
2024/01/24 09:50:29;;;;;;;10.60;4.32;;;10.70;99.90;;;;;;4977090;28;20058;-92
2024/01/24 09:52:56;;;;;;;16.92;4.50;;;10.80;99.90;;;;;;4972614;28;20054;-91
2024/01/24 09:55:31;;;;;;;9.27;3.53;;;10.80;99.90;;;;;;4975907;28;20679;-92
2024/01/24 09:58:03;;;;;;;10.07;2.78;;;10.90;99.90;;;;;;4976387;28;20049;-92
2024/01/24 10:00:44;;;;;;;12.18;4.13;;;10.90;99.90;;;;;;4992365;28;20054;-91
2024/01/24 10:03:19;;;;;;;9.35;3.55;;;10.90;99.90;;;;;;4976716;28;20058;-90
2024/01/24 10:05:47;;;;;;;15.55;4.32;;;11.00;36.10;;;;;;5019168;28;20464;-92
2024/01/24 10:08:16;;;;;;;10.38;4.03;;;11.00;99.90;;;;;;4989616;28;20116;-92
2024/01/24 10:10:45;;;;;;;10.05;4.13;;;11.10;21.60;;;;;;4970277;28;20058;-91
2024/01/24 10:13:14;;;;;;;12.13;4.55;;;11.10;99.90;;;;;;4976786;28;20126;-92
2024/01/24 10:15:42;;;;;;;11.07;3.75;;;11.10;99.90;;;;;;4970067;28;20061;-91
2024/01/24 10:18:12;;;;;;;11.05;3.88;;;11.20;99.90;;;;;;4971412;28;20058;-90
2024/01/24 10:20:41;;;;;;;14.90;4.82;;;11.20;99.90;;;;;;5007532;28;20148;-92
2024/01/24 10:23:10;;;;;;;11.07;4.47;;;11.30;99.90;;;;;;4974940;28;20066;-91
2024/01/24 10:25:41;;;;;;;13.40;4.43;;;11.30;99.90;;;;;;4969166;28;20133;-91
2024/01/24 10:28:16;;;;;;;11.80;4.00;;;11.30;17.40;;;;;;4987163;28;20049;-84
2024/01/24 10:30:46;;;;;;;10.55;4.13;;;11.30;77.00;;;;;;4989354;28;20539;-92
2024/01/24 10:33:16;;;;;;;9.27;3.30;;;11.40;1.00;;;;;;4960528;28;20065;-93
2024/01/24 10:35:50;;;;;;;10.90;3.53;;;11.40;1.00;;;;;;4961073;28;20072;-94
2024/01/24 10:38:22;;;;;;;11.98;4.03;;;11.40;1.00;;;;;;4974508;28;20050;-87
2024/01/24 10:40:52;;;;;;;18.33;4.57;;;11.40;99.90;;;;;;4999993;28;20515;-95
2024/01/24 10:43:23;;;;;;;12.07;4.20;;;11.40;35.10;;;;;;4987562;28;20060;-94
2024/01/24 10:45:53;;;;;;;15.80;5.65;;;11.40;89.60;;;;;;4977743;28;20085;-95
2024/01/24 10:48:24;;;;;;;9.43;3.83;;;11.40;23.70;;;;;;4989801;28;20148;-95
2024/01/24 10:50:57;;;;;;;13.48;4.85;;;11.40;50.10;;;;;;4957139;28;20053;-93
2024/01/24 10:53:24;;;;;;;10.05;3.78;;;11.50;99.90;;;;;;4974704;28;20139;-95
2024/01/24 10:55:57;;;;;;;9.90;3.38;;;11.60;99.90;;;;;;4954067;28;20141;-95
2024/01/24 10:58:25;;;;;;;;;;;11.60;99.90;;;;;;4986897;28;20089;-94
2024/01/24 11:00:55;;;;;;;10.88;3.72;;;11.60;1.00;;;;;;4974348;28;19965;-95
2024/01/24 11:03:25;;;;;;;8.18;3.70;;;11.60;99.90;;;;;;4960042;28;20092;-94
2024/01/24 11:05:55;;;;;;;8.65;2.97;;;11.60;1.00;;;;;;4976421;28;20061;-94
2024/01/24 11:09:03;;;;;;;10.13;3.58;;;11.70;99.90;;;;;;4985094;28;20100;-95
2024/01/24 11:11:34;;;;;;;12.15;4.10;;;11.70;99.90;;;;;;4966890;28;20058;-94
2024/01/24 11:14:02;;;;;;;7.68;2.92;;;11.80;99.90;;;;;;4959696;28;20505;-94
2024/01/24 11:16:30;;;;;;;8.50;3.22;;;11.90;77.00;;;;;;4958067;28;20484;-93
2024/01/24 11:19:02;;;;;;;6.38;2.20;;;12.00;29.30;;;;;;4958410;28;20065;-95
2024/01/24 11:21:33;;;;;;;8.60;3.05;;;12.00;81.40;;;;;;4983045;28;20050;-93
2024/01/24 11:24:02;;;;;;;9.23;3.97;;;12.00;99.90;;;;;;4985251;28;20054;-94
2024/01/24 11:26:31;;;;;;;9.23;2.85;;;12.00;99.90;;;;;;4960055;28;20411;-94
2024/01/24 11:29:12;;;;;;;7.45;3.33;;;12.10;99.90;;;;;;4992021;28;20045;-94
2024/01/24 11:31:45;;;;;;;12.38;3.70;;;12.10;99.90;;;;;;4964061;28;20070;-94
2024/01/24 11:34:16;;;;;;;7.28;3.15;;;12.10;99.90;;;;;;4992326;28;20054;-91
2024/01/24 11:36:50;;;;;;;9.05;3.83;;;12.10;99.90;;;;;;4975987;28;20145;-93
2024/01/24 11:39:37;;;;;;;6.35;3.22;;;12.10;99.90;;;;;;4976394;28;20530;-94
2024/01/24 11:42:25;;;;;;;10.88;3.13;;;12.20;99.90;;;;;;4977871;28;20152;-92
2024/01/24 11:44:54;;;;;;;11.20;3.47;;;12.20;99.90;;;;;;5005007;28;20054;-94
2024/01/24 11:47:25;;;;;;;8.18;3.58;;;12.20;99.90;;;;;;4977543;28;20789;-94
2024/01/24 11:49:53;;;;;;;8.55;2.80;;;12.20;99.90;;;;;;4977575;28;20052;-93
2024/01/24 11:52:23;;;;;;;12.15;3.67;;;12.30;99.90;;;;;;4976403;28;20064;-93
2024/01/24 11:54:52;;;;;;;10.98;3.42;;;12.30;99.90;;;;;;4975961;28;20826;-94
2024/01/24 11:57:21;;;;;;;10.45;3.42;;;12.30;99.90;;;;;;4977125;28;20054;-94
2024/01/24 11:59:48;;;;;;;9.93;3.70;;;12.30;99.90;;;;;;4976509;28;20446;-94
2024/01/24 12:02:23;;;;;;;8.70;3.28;;;12.40;99.90;;;;;;4989667;28;20062;-93
2024/01/24 12:05:06;;;;;;;9.32;3.28;;;12.50;99.90;;;;;;4978479;28;20125;-93
2024/01/24 12:07:38;;;;;;;7.30;3.00;;;12.60;99.90;;;;;;4993168;28;20575;-95
2024/01/24 12:10:09;;;;;;;8.25;3.17;;;12.50;99.90;;;;;;4976333;28;20064;-93
2024/01/24 12:12:37;;;;;;;7.72;3.42;;;12.50;99.90;;;;;;5006913;28;20464;-94
2024/01/24 12:15:10;;;;;;;7.22;2.75;;;12.50;99.90;;;;;;4975922;28;20133;-93
2024/01/24 12:17:39;;;;;;;4.57;1.70;;;12.50;99.90;;;;;;5007923;28;20049;-94
2024/01/24 12:20:16;;;;;;;8.90;3.45;;;12.60;99.90;;;;;;4974551;28;20057;-94
2024/01/24 12:22:46;;;;;;;9.57;3.47;;;12.50;99.90;;;;;;4974967;28;20077;-89
2024/01/24 12:25:14;;;;;;;8.65;3.45;;;12.40;99.90;;;;;;4975290;28;20080;-94
2024/01/24 12:27:43;;;;;;;8.07;3.63;;;12.40;99.90;;;;;;4974231;28;20070;-94
2024/01/24 12:30:20;;;;;;;10.07;3.80;;;12.40;1.00;;;;;;4987760;28;20085;-94
2024/01/24 12:32:54;;;;;;;8.98;3.40;;;12.50;1.00;;;;;;4991798;28;20064;-94
2024/01/24 12:35:31;;;;;;;10.30;3.10;;;12.60;99.90;;;;;;4976470;28;20062;-95
2024/01/24 12:38:03;;;;;;;10.10;3.95;;;12.60;99.90;;;;;;4979153;28;20124;-94
2024/01/24 12:40:31;;;;;;;4.03;2.40;;;12.60;99.90;;;;;;4977546;28;20076;-94
2024/01/24 12:43:10;;;;;;;6.25;2.55;;;12.70;1.00;;;;;;4960473;28;20470;-93
2024/01/24 12:45:49;;;;;;;6.18;2.78;;;12.80;1.00;;;;;;4974478;28;20048;-95
2024/01/24 12:48:18;;;;;;;6.32;2.90;;;13.00;99.90;;;;;;4960401;28;20056;-94
2024/01/24 12:50:50;;;;;;;7.30;3.20;;;13.00;89.50;;;;;;4957401;28;20061;-95
2024/01/24 12:53:21;;;;;;;4.82;2.83;;;13.20;1.00;;;;;;4968487;28;20942;-94